createdAt,value
2018-12-26T09:28:34.121Z,94.65
2018-12-26T09:29:53.227Z,94.55
2018-12-26T09:30:34.107Z,94.44
2018-12-26T09:31:34.091Z,94.34
2018-12-26T09:32:34.061Z,94.34
2018-12-26T09:33:46.470Z,94.55
2018-12-26T09:34:34.089Z,94.34
2018-12-26T09:36:53.657Z,94.19
2018-12-26T09:39:08.383Z,94.40
2018-12-26T09:40:08.235Z,94.44
2018-12-26T09:41:08.236Z,94.40
2018-12-26T09:42:24.910Z,94.19
2018-12-26T09:43:29.695Z,94.23
2018-12-26T09:44:19.090Z,94.34
2018-12-26T09:45:19.063Z,94.34
2018-12-26T09:46:09.154Z,94.44
2018-12-26T09:47:08.211Z,94.29
2018-12-26T09:48:08.152Z,94.44
2018-12-26T09:49:20.430Z,94.65
2018-12-26T09:50:08.174Z,94.96
2018-12-26T09:51:33.175Z,95.49
2018-12-26T09:52:08.167Z,95.28
2018-12-26T09:53:08.249Z,95.17
2018-12-26T09:54:17.972Z,95.49
2018-12-26T09:55:08.051Z,95.13
2018-12-26T09:56:17.575Z,95.55
2018-12-26T09:57:08.040Z,95.13
2018-12-26T09:58:08.034Z,95.03
2018-12-26T09:59:08.024Z,95.17
2018-12-26T10:00:07.979Z,95.23
2018-12-26T10:01:07.971Z,95.34
2018-12-26T10:02:17.681Z,95.70
2018-12-26T10:03:07.989Z,95.86
2018-12-26T10:04:09.172Z,95.44
2018-12-26T10:05:08.873Z,95.76
2018-12-26T10:06:07.926Z,96.07
2018-12-26T10:07:07.902Z,95.86
2018-12-26T10:08:18.685Z,95.13
2018-12-26T10:09:07.895Z,95.40
2018-12-26T10:10:07.885Z,94.82
2018-12-26T10:11:07.869Z,95.23
2018-12-26T10:12:08.843Z,95.50
2018-12-26T10:13:19.749Z,95.34
2018-12-26T10:14:07.852Z,95.09
2018-12-26T10:15:07.851Z,95.23
2018-12-26T10:16:07.925Z,95.40
2018-12-26T10:17:07.800Z,95.09
2018-12-26T10:18:16.564Z,94.71
2018-12-26T10:19:07.796Z,94.25
2018-12-26T10:20:17.310Z,94.35
2018-12-26T10:21:07.761Z,94.67
2018-12-26T10:22:21.076Z,95.34
2018-12-26T10:23:08.509Z,94.67
2018-12-26T10:24:16.400Z,94.25
2018-12-26T10:25:22.104Z,94.57
2018-12-26T10:27:58.441Z,94.67
2018-12-26T10:30:29.245Z,94.82
2018-12-26T10:31:29.106Z,95.09
2018-12-26T10:32:29.206Z,95.09
2018-12-26T10:33:29.195Z,94.98
2018-12-26T10:34:54.654Z,95.92
2018-12-26T10:35:47.323Z,95.44
2018-12-26T10:36:29.036Z,95.40
2018-12-26T10:37:29.001Z,95.82
2018-12-26T10:38:39.419Z,95.65
2018-12-26T10:39:30.051Z,95.65
2018-12-26T10:40:51.157Z,95.50
2018-12-26T10:41:29.110Z,95.82
2018-12-26T10:42:40.808Z,95.40
2018-12-26T10:44:58.913Z,95.40
2018-12-26T10:46:10.040Z,95.61
2018-12-26T10:46:58.850Z,95.92
2018-12-26T10:47:58.787Z,95.92
2018-12-26T10:48:58.813Z,95.61
2018-12-26T10:49:58.818Z,95.50
2018-12-26T10:50:58.777Z,95.61
2018-12-26T10:51:58.750Z,95.61
2018-12-26T10:52:58.724Z,95.50
2018-12-26T10:53:58.725Z,95.72
2018-12-26T10:54:58.742Z,95.72
2018-12-26T10:55:58.707Z,95.61
2018-12-26T10:56:58.703Z,95.72
2018-12-26T10:57:58.690Z,95.61
2018-12-26T10:58:59.948Z,96.13
2018-12-26T10:59:58.657Z,95.82
2018-12-26T11:00:58.661Z,95.98
2018-12-26T11:01:58.627Z,95.56
2018-12-26T11:02:58.650Z,95.61
2018-12-26T11:03:58.597Z,95.46
2018-12-26T11:04:58.630Z,95.40
2018-12-26T11:06:08.193Z,95.67
2018-12-26T11:06:58.589Z,96.30
2018-12-26T11:07:58.603Z,95.78
2018-12-26T11:08:58.587Z,95.67
2018-12-26T11:09:58.596Z,96.19
2018-12-26T11:10:58.731Z,95.67
2018-12-26T11:11:58.529Z,95.56
2018-12-26T11:12:58.491Z,95.82
2018-12-26T11:13:58.508Z,96.23
2018-12-26T11:15:10.306Z,96.66
2018-12-26T11:15:58.482Z,96.40
2018-12-26T11:16:58.508Z,95.98
2018-12-26T11:17:58.486Z,96.09
2018-12-26T11:18:58.460Z,95.98
2018-12-26T11:19:58.418Z,96.61
2018-12-26T11:20:58.430Z,96.09
2018-12-26T11:21:59.995Z,96.50
2018-12-26T11:22:58.401Z,96.30
2018-12-26T11:23:58.389Z,96.40
2018-12-26T11:24:58.398Z,96.61
2018-12-26T11:25:58.403Z,96.09
2018-12-26T11:26:58.346Z,96.82
2018-12-26T11:27:58.352Z,96.40
2018-12-26T11:28:58.327Z,96.30
2018-12-26T11:29:58.329Z,96.44
2018-12-26T11:30:58.343Z,96.71
2018-12-26T11:31:58.312Z,96.61
2018-12-26T11:32:58.302Z,96.76
2018-12-26T11:33:58.311Z,96.61
2018-12-26T11:34:58.294Z,96.71
2018-12-26T11:35:58.267Z,96.71
2018-12-26T11:36:58.289Z,96.61
2018-12-26T11:37:58.301Z,96.71
2018-12-26T11:38:58.238Z,96.50
2018-12-26T11:39:58.228Z,96.30
2018-12-26T11:40:58.205Z,96.19
2018-12-26T11:41:58.215Z,96.09
2018-12-26T11:42:58.172Z,96.50
2018-12-26T11:43:58.187Z,96.71
2018-12-26T11:44:58.182Z,96.56
2018-12-26T11:46:07.714Z,96.19
2018-12-26T11:46:58.183Z,96.40
2018-12-26T11:47:58.152Z,96.50
2018-12-26T11:48:58.123Z,96.19
2018-12-26T11:49:58.102Z,96.40
2018-12-26T11:50:58.102Z,96.50
2018-12-26T11:51:58.076Z,96.56
2018-12-26T11:52:58.082Z,96.82
2018-12-26T11:53:58.078Z,96.40
2018-12-26T11:54:58.039Z,96.50
2018-12-26T11:55:58.043Z,96.61
2018-12-26T11:56:58.019Z,96.67
2018-12-26T11:57:58.016Z,96.67
2018-12-26T11:58:58.007Z,96.61
2018-12-26T11:59:57.974Z,96.61
2018-12-26T12:00:58.038Z,97.50
2018-12-26T12:01:57.976Z,97.40
2018-12-26T12:02:57.962Z,96.67
2018-12-26T12:03:57.983Z,97.30
2018-12-26T12:04:58.010Z,97.09
2018-12-26T12:05:57.918Z,97.19
2018-12-26T12:06:57.902Z,97.09
2018-12-26T12:07:57.947Z,96.88
2018-12-26T12:08:57.884Z,97.71
2018-12-26T12:09:57.911Z,97.71
2018-12-26T12:10:57.904Z,97.50
2018-12-26T12:11:57.892Z,97.09
2018-12-26T12:12:57.834Z,97.19
2018-12-26T12:13:57.889Z,96.94
2018-12-26T12:14:57.831Z,97.19
2018-12-26T12:15:57.810Z,96.98
2018-12-26T12:16:57.833Z,97.09
2018-12-26T12:17:57.784Z,97.40
2018-12-26T12:18:57.854Z,97.09
2018-12-26T12:19:57.787Z,97.30
2018-12-26T12:20:57.793Z,97.09
2018-12-26T12:21:57.741Z,97.61
2018-12-26T12:22:57.736Z,97.50
2018-12-26T12:23:57.766Z,97.25
2018-12-26T12:24:58.459Z,97.25
2018-12-26T12:25:57.722Z,97.61
2018-12-26T12:26:57.719Z,97.50
2018-12-26T12:27:57.736Z,97.40
2018-12-26T12:28:57.694Z,97.61
2018-12-26T12:29:57.817Z,97.61
2018-12-26T12:30:57.646Z,97.61
2018-12-26T12:31:57.610Z,97.61
2018-12-26T12:32:57.614Z,97.81
2018-12-26T12:33:57.591Z,97.40
2018-12-26T12:34:57.575Z,97.61
2018-12-26T12:35:57.609Z,97.35
2018-12-26T12:36:57.553Z,97.30
2018-12-26T12:37:57.532Z,97.50
2018-12-26T12:38:57.527Z,97.81
2018-12-26T12:39:57.524Z,97.81
2018-12-26T12:40:57.561Z,97.71
2018-12-26T12:41:57.497Z,97.61
2018-12-26T12:42:57.485Z,97.50
2018-12-26T12:43:57.472Z,97.50
2018-12-26T12:44:57.467Z,97.61
2018-12-26T12:45:57.463Z,97.35
2018-12-26T12:46:57.456Z,97.61
2018-12-26T12:47:57.428Z,97.92
2018-12-26T12:48:57.413Z,97.50
2018-12-26T12:49:57.405Z,97.92
2018-12-26T12:51:09.033Z,98.34
2018-12-26T12:51:57.427Z,98.02
2018-12-26T12:53:08.115Z,98.02
2018-12-26T12:53:57.404Z,98.02
2018-12-26T12:54:57.387Z,97.98
2018-12-26T12:55:58.035Z,97.92
2018-12-26T12:56:57.337Z,98.02
2018-12-26T12:57:57.351Z,98.02
2018-12-26T12:58:57.326Z,98.13
2018-12-26T12:59:57.320Z,98.13
2018-12-26T13:00:57.289Z,97.71
2018-12-26T13:01:57.348Z,98.02
2018-12-26T13:03:00.592Z,98.02
2018-12-26T13:03:57.260Z,98.02
2018-12-26T13:04:57.274Z,98.23
2018-12-26T13:05:57.265Z,98.02
2018-12-26T13:06:57.283Z,97.81
2018-12-26T13:07:57.238Z,97.92
2018-12-26T13:09:06.721Z,97.92
2018-12-26T13:11:09.513Z,98.23
2018-12-26T13:12:19.337Z,98.34
2018-12-26T13:13:09.344Z,98.86
2018-12-26T13:14:09.315Z,98.86
2018-12-26T13:15:19.103Z,98.86
2018-12-26T13:17:20.573Z,98.34
2018-12-26T13:18:20.545Z,98.65
2018-12-26T13:19:20.546Z,98.86
2018-12-26T13:20:20.519Z,98.23
2018-12-26T13:22:36.099Z,98.44
2018-12-26T13:24:49.138Z,98.55
2018-12-26T13:26:24.899Z,98.34
2018-12-26T13:27:03.025Z,98.75
2018-12-26T13:27:57.805Z,98.34
2018-12-26T13:31:58.513Z,98.34
2018-12-26T13:34:29.885Z,98.75
2018-12-26T13:38:09.122Z,98.44
2018-12-26T13:44:07.970Z,99.07
2018-12-26T13:45:07.075Z,99.07
2018-12-26T13:46:33.526Z,98.75
2018-12-26T13:48:18.062Z,99.38
2018-12-26T13:56:39.516Z,99.17
2018-12-26T13:57:47.612Z,99.27
2018-12-26T14:00:05.096Z,99.48
2018-12-26T14:01:14.988Z,99.38
2018-12-26T14:04:04.418Z,99.17
2018-12-26T14:05:15.155Z,99.38
2018-12-26T14:06:15.848Z,99.38
2018-12-26T14:07:04.209Z,99.99
2018-12-26T14:08:05.165Z,99.99
2018-12-26T14:09:15.512Z,99.48
2018-12-26T14:10:04.189Z,99.59
2018-12-26T14:11:14.911Z,99.69
2018-12-26T14:13:16.694Z,99.69
2018-12-26T14:14:25.682Z,99.59
2018-12-26T14:15:16.194Z,99.48
2018-12-26T14:17:42.041Z,99.90
2018-12-26T14:19:55.030Z,99.80
2018-12-26T14:21:03.522Z,99.99
2018-12-26T14:21:54.928Z,99.99
2018-12-26T14:23:05.701Z,99.90
2018-12-26T14:24:08.103Z,99.99
2018-12-26T14:25:04.919Z,99.99
2018-12-26T14:26:06.397Z,99.99
2018-12-26T14:26:54.898Z,99.99
2018-12-26T14:27:54.880Z,99.99
2018-12-26T14:28:54.863Z,99.99
2018-12-26T14:30:11.138Z,99.99
2018-12-26T14:30:55.835Z,99.99
2018-12-26T14:31:54.875Z,99.99
2018-12-26T14:34:07.267Z,99.90
2018-12-26T14:35:17.084Z,99.99
2018-12-26T14:36:18.253Z,99.99
2018-12-26T14:37:07.147Z,99.90
2018-12-26T14:38:07.262Z,99.99
2018-12-26T14:39:21.161Z,99.99
2018-12-26T14:40:15.748Z,99.99
2018-12-26T14:41:07.131Z,99.90
2018-12-26T14:42:07.148Z,99.99
2018-12-26T14:43:07.073Z,99.99
2018-12-26T14:44:23.433Z,99.99
2018-12-26T14:45:08.210Z,99.99
2018-12-26T14:46:07.989Z,99.99
2018-12-26T14:47:19.796Z,99.99
2018-12-26T14:49:26.213Z,99.99
2018-12-26T14:53:35.431Z,99.99
2018-12-26T14:54:45.451Z,99.99
2018-12-26T14:56:49.402Z,99.99
2018-12-26T15:02:14.720Z,99.99
2018-12-26T15:04:26.196Z,99.99
2018-12-26T15:05:25.425Z,99.99
2018-12-26T15:06:26.561Z,99.99
2018-12-26T15:07:25.088Z,99.99
2018-12-26T15:09:57.183Z,99.99
2018-12-26T15:10:57.048Z,99.99
2018-12-26T15:12:09.080Z,99.99
2018-12-26T15:12:56.750Z,99.99
2018-12-26T15:14:07.709Z,99.99
2018-12-26T15:16:55.822Z,99.99
2018-12-26T15:17:56.046Z,99.99
2018-12-26T15:18:55.071Z,99.99
2018-12-26T15:20:05.437Z,99.99
2018-12-26T15:21:07.436Z,99.99
2018-12-26T15:22:51.239Z,99.99
2018-12-26T15:23:49.445Z,99.99
2018-12-26T15:24:49.524Z,99.99
2018-12-26T15:25:50.213Z,99.99
2018-12-26T15:26:49.091Z,99.99
2018-12-26T15:27:49.123Z,99.99
2018-12-26T15:28:50.189Z,99.99
2018-12-26T15:29:49.138Z,99.99
2018-12-26T15:31:01.951Z,99.99
2018-12-26T15:31:50.392Z,99.99
2018-12-26T15:32:49.248Z,99.99
2018-12-26T15:35:40.209Z,99.99
2018-12-26T15:36:49.100Z,99.99
2018-12-26T15:38:57.226Z,99.99
2018-12-26T15:40:10.017Z,99.99
2018-12-26T15:40:57.090Z,99.99
2018-12-26T15:45:52.195Z,99.99
2018-12-26T15:47:23.706Z,99.99
2018-12-26T15:47:52.792Z,99.99
2018-12-26T15:50:26.025Z,99.99
2018-12-26T15:54:12.912Z,99.99
2018-12-26T15:55:13.326Z,99.99
2018-12-26T15:56:30.489Z,99.99
2018-12-26T15:57:24.763Z,99.99
2018-12-26T15:58:13.131Z,99.99
2018-12-26T15:59:26.244Z,99.99
2018-12-26T16:00:12.576Z,99.99
2018-12-26T16:01:35.360Z,99.99
2018-12-26T16:02:13.223Z,99.99
2018-12-26T16:03:13.173Z,99.99
2018-12-26T16:04:12.152Z,99.99
2018-12-26T16:05:12.239Z,99.99
2018-12-26T16:06:26.809Z,99.99
2018-12-26T16:07:15.331Z,99.99
2018-12-26T16:08:12.160Z,99.99
2018-12-26T16:09:12.232Z,99.99
2018-12-26T16:10:12.730Z,99.99
2018-12-26T16:11:13.228Z,99.99
2018-12-26T16:12:12.098Z,99.99
2018-12-26T16:13:12.071Z,99.99
2018-12-26T16:14:13.716Z,99.99
2018-12-26T16:15:12.031Z,99.99
2018-12-26T16:16:12.077Z,99.99
2018-12-26T16:17:12.096Z,99.99
2018-12-26T16:18:12.089Z,99.99
2018-12-26T16:19:12.042Z,99.99
2018-12-26T16:20:11.994Z,99.99
2018-12-26T16:22:24.472Z,99.99
2018-12-26T16:23:24.488Z,99.99
2018-12-26T16:24:24.364Z,99.99
2018-12-26T16:25:24.449Z,99.99
2018-12-26T16:26:24.263Z,99.99
2018-12-26T16:27:24.154Z,99.99
2018-12-26T16:28:24.189Z,99.99
2018-12-26T16:29:24.160Z,99.99
2018-12-26T16:30:25.127Z,99.99
2018-12-26T16:31:24.151Z,99.99
2018-12-26T16:32:24.076Z,99.99
2018-12-26T16:33:24.069Z,99.99
2018-12-26T16:34:24.098Z,99.99
2018-12-26T16:35:24.058Z,99.99
2018-12-26T16:36:28.481Z,99.99
2018-12-26T16:37:24.067Z,99.99
2018-12-26T16:38:24.063Z,99.99
2018-12-26T16:39:23.998Z,99.99
2018-12-26T16:40:24.062Z,99.99
2018-12-26T16:41:23.965Z,99.99
2018-12-26T16:42:24.458Z,99.99
2018-12-26T16:43:23.954Z,99.99
2018-12-26T16:44:24.926Z,99.99
2018-12-26T16:45:23.986Z,99.99
2018-12-26T16:46:24.974Z,99.99
2018-12-26T16:47:24.485Z,99.99
2018-12-26T16:48:23.900Z,99.99
2018-12-26T16:49:24.410Z,99.99
2018-12-26T16:50:27.094Z,99.99
2018-12-26T16:51:25.436Z,99.99
2018-12-26T16:52:23.966Z,99.99
2018-12-26T16:53:23.893Z,99.99
2018-12-26T16:54:25.658Z,99.99
2018-12-26T16:55:23.825Z,99.99
2018-12-26T16:56:23.813Z,99.99
2018-12-26T16:57:23.800Z,99.99
2018-12-26T16:58:23.822Z,99.99
2018-12-26T16:59:23.748Z,99.99
2018-12-26T17:00:23.744Z,99.99
2018-12-26T17:01:23.779Z,99.99
2018-12-26T17:02:23.731Z,99.99
2018-12-26T17:03:23.758Z,99.99
2018-12-26T17:04:23.709Z,99.99
2018-12-26T17:05:24.348Z,99.99
2018-12-26T17:06:28.529Z,99.99
2018-12-26T17:07:24.667Z,99.99
2018-12-26T17:08:23.746Z,99.99
2018-12-26T17:09:23.989Z,99.99
2018-12-26T17:10:23.642Z,99.99
2018-12-26T17:11:23.657Z,99.99
2018-12-26T17:12:24.409Z,99.99
2018-12-26T17:13:23.642Z,99.99
2018-12-26T17:14:24.415Z,99.99
2018-12-26T17:15:23.578Z,99.99
2018-12-26T17:16:23.563Z,99.99
2018-12-26T17:17:23.589Z,99.99
2018-12-26T17:18:23.616Z,99.99
2018-12-26T17:19:23.591Z,99.99
2018-12-26T17:20:24.526Z,99.99
2018-12-26T17:21:34.569Z,99.99
2018-12-26T17:22:23.518Z,99.99
2018-12-26T17:23:23.516Z,99.99
2018-12-26T17:24:23.532Z,99.99
2018-12-26T17:25:23.462Z,99.99
2018-12-26T17:26:23.461Z,99.99
2018-12-26T17:27:23.456Z,99.99
2018-12-26T17:28:23.463Z,99.99
2018-12-26T17:29:23.443Z,99.99
2018-12-26T17:30:23.440Z,99.99
2018-12-26T17:31:23.466Z,99.99
2018-12-26T17:32:23.413Z,99.99
2018-12-26T17:33:23.932Z,99.99
2018-12-26T17:34:23.928Z,99.99
2018-12-26T17:35:23.359Z,99.99
2018-12-26T17:36:34.159Z,99.99
2018-12-26T17:37:23.348Z,99.99
2018-12-26T17:38:23.334Z,99.99
2018-12-26T17:39:23.328Z,99.99
2018-12-26T17:40:23.365Z,99.99
2018-12-26T17:41:23.292Z,99.99
2018-12-26T17:42:24.302Z,99.99
2018-12-26T17:43:23.845Z,99.99
2018-12-26T17:44:23.312Z,99.99
2018-12-26T17:45:23.291Z,99.99
2018-12-26T17:46:23.240Z,99.99
2018-12-26T17:47:24.231Z,99.99
2018-12-26T17:48:23.222Z,99.99
2018-12-26T17:49:23.216Z,99.99
2018-12-26T17:50:24.213Z,99.99
2018-12-26T17:52:34.522Z,99.99
2018-12-26T17:53:34.653Z,99.99
2018-12-26T17:54:34.456Z,99.99
2018-12-26T17:55:34.570Z,99.99
2018-12-26T17:56:34.306Z,99.99
2018-12-26T17:57:34.276Z,99.99
2018-12-26T17:58:34.263Z,99.99
2018-12-26T17:59:34.236Z,99.99
2018-12-26T18:00:34.215Z,99.99
2018-12-26T18:01:34.291Z,99.99
2018-12-26T18:02:34.185Z,99.99
2018-12-26T18:03:34.184Z,99.99
2018-12-26T18:04:34.182Z,99.99
2018-12-26T18:05:34.154Z,99.99
2018-12-26T18:06:34.208Z,99.99
2018-12-26T18:07:34.207Z,99.99
2018-12-26T18:08:34.124Z,99.99
2018-12-26T18:09:34.157Z,99.99
2018-12-26T18:10:34.108Z,99.99
2018-12-26T18:11:34.108Z,99.99
2018-12-26T18:12:34.125Z,99.99
2018-12-26T18:13:34.122Z,99.99
2018-12-26T18:14:34.061Z,99.99
2018-12-26T18:15:35.040Z,99.99
2018-12-26T18:16:34.056Z,99.99
2018-12-26T18:17:34.632Z,99.99
2018-12-26T18:18:34.045Z,99.99
2018-12-26T18:19:34.066Z,99.99
2018-12-26T18:20:34.067Z,99.99
2018-12-26T18:22:45.633Z,99.99
2018-12-26T18:23:46.298Z,99.99
2018-12-26T18:24:46.486Z,99.99
2018-12-26T18:25:45.525Z,99.99
2018-12-26T18:26:46.281Z,99.99
2018-12-26T18:27:45.256Z,99.99
2018-12-26T18:30:41.361Z,99.99
2018-12-26T18:31:42.100Z,99.99
2018-12-26T18:32:41.326Z,99.99
2018-12-26T18:33:41.187Z,99.99
2018-12-26T18:34:41.222Z,99.99
2018-12-26T18:35:41.057Z,99.99
2018-12-26T18:37:03.206Z,99.99
2018-12-26T18:37:41.064Z,99.99
2018-12-26T18:38:41.045Z,99.99
2018-12-26T18:39:41.116Z,99.99
2018-12-26T18:40:41.110Z,99.99
2018-12-26T18:41:41.003Z,99.99
2018-12-26T18:42:41.026Z,99.99
2018-12-26T18:43:41.043Z,99.99
2018-12-26T18:44:41.948Z,99.99
2018-12-26T18:45:40.971Z,99.99
2018-12-26T18:46:40.975Z,99.99
2018-12-26T18:47:40.960Z,99.99
2018-12-26T18:48:40.893Z,99.99
2018-12-26T18:49:41.198Z,99.99
2018-12-26T18:50:40.928Z,99.99
2018-12-26T18:51:41.941Z,99.99
2018-12-26T18:52:40.866Z,99.99
2018-12-26T18:53:40.875Z,99.99
2018-12-26T18:54:40.834Z,99.99
2018-12-26T18:55:41.681Z,99.99
2018-12-26T18:56:40.935Z,99.99
2018-12-26T18:57:40.852Z,99.99
2018-12-26T18:58:40.781Z,99.99
2018-12-26T18:59:40.823Z,99.99
2018-12-26T19:00:40.780Z,99.99
2018-12-26T19:01:40.758Z,99.99
2018-12-26T19:02:40.821Z,99.99
2018-12-26T19:03:40.743Z,99.99
2018-12-26T19:04:40.726Z,99.99
2018-12-26T19:05:40.723Z,99.99
2018-12-26T19:06:42.765Z,99.99
2018-12-26T19:07:40.737Z,99.99
2018-12-26T19:08:40.674Z,99.99
2018-12-26T19:09:40.675Z,99.99
2018-12-26T19:10:40.704Z,99.99
2018-12-26T19:11:40.680Z,99.99
2018-12-26T19:12:42.249Z,99.99
2018-12-26T19:13:40.635Z,99.99
2018-12-26T19:14:40.725Z,99.99
2018-12-26T19:15:40.632Z,99.99
2018-12-26T19:16:40.604Z,99.99
2018-12-26T19:17:40.592Z,99.99
2018-12-26T19:18:40.598Z,99.99
2018-12-26T19:19:40.553Z,99.99
2018-12-26T19:20:41.213Z,99.99
2018-12-26T19:21:40.539Z,99.99
2018-12-26T19:22:40.527Z,99.99
2018-12-26T19:23:40.614Z,99.99
2018-12-26T19:24:40.509Z,99.99
2018-12-26T19:25:40.498Z,99.99
2018-12-26T19:26:40.553Z,99.99
2018-12-26T19:27:40.475Z,99.99
2018-12-26T19:28:40.482Z,99.99
2018-12-26T19:29:40.456Z,99.99
2018-12-26T19:30:40.554Z,99.99
2018-12-26T19:31:40.471Z,99.99
2018-12-26T19:32:40.428Z,99.99
2018-12-26T19:33:40.426Z,99.99
2018-12-26T19:34:40.401Z,99.99
2018-12-26T19:35:40.401Z,99.99
2018-12-26T19:36:40.413Z,99.99
2018-12-26T19:37:40.358Z,99.99
2018-12-26T19:38:40.424Z,99.99
2018-12-26T19:39:40.337Z,99.99
2018-12-26T19:40:40.329Z,99.99
2018-12-26T19:41:40.328Z,99.99
2018-12-26T19:42:40.338Z,99.99
2018-12-26T19:43:40.336Z,99.99
2018-12-26T19:44:40.280Z,99.99
2018-12-26T19:45:40.332Z,99.99
2018-12-26T19:46:40.265Z,99.99
2018-12-26T19:47:40.285Z,99.99
2018-12-26T19:48:40.264Z,99.99
2018-12-26T19:49:40.251Z,99.99
2018-12-26T19:50:40.275Z,99.99
2018-12-26T19:51:40.222Z,99.99
2018-12-26T19:52:40.206Z,99.99
2018-12-26T19:53:40.250Z,99.99
2018-12-26T19:54:41.191Z,99.99
2018-12-26T19:55:40.167Z,99.99
2018-12-26T19:56:40.146Z,99.99
2018-12-26T19:57:40.162Z,99.99
2018-12-26T19:58:40.161Z,99.99
2018-12-26T19:59:40.133Z,99.99
2018-12-26T20:00:40.689Z,99.99
2018-12-26T20:01:47.984Z,99.99
2018-12-26T20:02:41.129Z,99.99
2018-12-26T20:03:40.093Z,99.99
2018-12-26T20:04:40.097Z,99.99
2018-12-26T20:05:40.046Z,99.99
2018-12-26T20:06:40.038Z,99.99
2018-12-26T20:07:40.064Z,99.99
2018-12-26T20:08:40.025Z,99.99
2018-12-26T20:09:40.035Z,99.99
2018-12-26T20:10:39.989Z,99.99
2018-12-26T20:11:39.982Z,99.99
2018-12-26T20:12:39.961Z,99.99
2018-12-26T20:13:39.959Z,99.99
2018-12-26T20:14:39.961Z,99.99
2018-12-26T20:15:40.968Z,99.99
2018-12-26T20:16:39.935Z,99.99
2018-12-26T20:17:39.912Z,99.99
2018-12-26T20:18:39.908Z,99.99
2018-12-26T20:19:39.889Z,99.99
2018-12-26T20:20:39.903Z,99.99
2018-12-26T20:21:39.904Z,99.99
2018-12-26T20:22:39.858Z,99.99
2018-12-26T20:23:39.841Z,99.99
2018-12-26T20:24:39.838Z,99.99
2018-12-26T20:25:39.813Z,99.99
2018-12-26T20:26:40.873Z,99.99
2018-12-26T20:27:39.805Z,99.99
2018-12-26T20:28:39.790Z,99.99
2018-12-26T20:29:39.778Z,99.99
2018-12-26T20:30:39.771Z,99.99
2018-12-26T20:31:39.781Z,99.99
2018-12-26T20:32:39.746Z,99.99
2018-12-26T20:33:39.765Z,99.99
2018-12-26T20:34:39.723Z,99.99
2018-12-26T20:35:39.709Z,99.99
2018-12-26T20:36:39.709Z,99.99
2018-12-26T20:37:39.691Z,99.99
2018-12-26T20:38:39.693Z,99.99
2018-12-26T20:39:39.663Z,99.99
2018-12-26T20:40:39.648Z,99.99
2018-12-26T20:41:39.729Z,99.99
2018-12-26T20:42:39.662Z,99.99
2018-12-26T20:43:39.614Z,99.99
2018-12-26T20:44:39.611Z,99.99
2018-12-26T20:45:39.598Z,99.99
2018-12-26T20:46:39.599Z,99.99
2018-12-26T20:47:39.832Z,99.99
2018-12-26T20:48:39.556Z,99.99
2018-12-26T20:49:39.585Z,99.99
2018-12-26T20:50:39.548Z,99.99
2018-12-26T20:51:50.272Z,99.99
2018-12-26T20:52:39.519Z,99.99
2018-12-26T20:53:39.553Z,99.99
2018-12-26T20:54:39.498Z,99.99
2018-12-26T20:55:39.499Z,99.99
2018-12-26T20:56:39.539Z,99.99
2018-12-26T20:57:39.555Z,99.99
2018-12-26T20:58:39.521Z,99.99
2018-12-26T20:59:39.513Z,99.99
2018-12-26T21:00:39.518Z,99.99
2018-12-26T21:01:40.241Z,99.99
2018-12-26T21:02:39.425Z,99.99
2018-12-26T21:03:39.574Z,99.99
2018-12-26T21:04:39.522Z,99.99
2018-12-26T21:05:39.460Z,99.99
2018-12-26T21:06:39.475Z,99.99
2018-12-26T21:07:39.430Z,99.99
2018-12-26T21:08:39.417Z,99.99
2018-12-26T21:09:39.580Z,99.99
2018-12-26T21:10:39.412Z,99.99
2018-12-26T21:11:39.358Z,99.99
2018-12-26T21:12:39.299Z,99.99
2018-12-26T21:13:39.331Z,99.99
2018-12-26T21:14:39.333Z,99.99
2018-12-26T21:15:39.294Z,99.99
2018-12-26T21:16:40.328Z,99.99
2018-12-26T21:17:39.239Z,99.99
2018-12-26T21:18:39.251Z,99.99
2018-12-26T21:19:39.258Z,99.99
2018-12-26T21:20:39.275Z,99.99
2018-12-26T21:21:39.194Z,99.99
2018-12-26T21:22:39.197Z,99.99
2018-12-26T21:23:39.171Z,99.99
2018-12-26T21:24:39.156Z,99.99
2018-12-26T21:25:39.241Z,99.99
2018-12-26T21:26:39.408Z,99.99
2018-12-26T21:27:39.240Z,99.99
2018-12-26T21:28:39.114Z,99.99
2018-12-26T21:29:39.146Z,99.99
2018-12-26T21:30:39.093Z,99.99
2018-12-26T21:31:39.110Z,99.99
2018-12-26T21:32:39.088Z,99.99
2018-12-26T21:33:39.042Z,99.99
2018-12-26T21:34:39.060Z,99.99
2018-12-26T21:35:39.025Z,99.99
2018-12-26T21:36:39.102Z,99.99
2018-12-26T21:37:39.083Z,99.99
2018-12-26T21:38:38.997Z,99.99
2018-12-26T21:39:39.014Z,99.99
2018-12-26T21:40:38.988Z,99.99
2018-12-26T21:41:39.008Z,99.99
2018-12-26T21:42:38.956Z,99.99
2018-12-26T21:43:38.982Z,99.99
2018-12-26T21:44:39.027Z,99.99
2018-12-26T21:45:39.012Z,99.99
2018-12-26T21:46:38.940Z,99.99
2018-12-26T21:47:38.913Z,99.99
2018-12-26T21:48:38.901Z,99.99
2018-12-26T21:49:38.883Z,99.99
2018-12-26T21:50:38.898Z,99.99
2018-12-26T21:51:38.852Z,99.99
2018-12-26T21:52:39.018Z,99.99
2018-12-26T21:53:38.833Z,99.99
2018-12-26T21:54:38.881Z,99.99
2018-12-26T21:55:38.871Z,99.99
2018-12-26T21:56:38.839Z,99.99
2018-12-26T21:57:38.882Z,99.99
2018-12-26T21:58:38.874Z,99.99
2018-12-26T21:59:38.832Z,99.99
2018-12-26T22:00:38.789Z,99.99
2018-12-26T22:01:38.846Z,99.99
2018-12-26T22:02:38.823Z,99.99
2018-12-26T22:03:38.797Z,99.99
2018-12-26T22:04:38.882Z,99.99
2018-12-26T22:05:38.791Z,99.99
2018-12-26T22:06:38.694Z,99.99
2018-12-26T22:07:38.710Z,99.99
2018-12-26T22:08:38.791Z,99.99
2018-12-26T22:09:38.822Z,99.99
2018-12-26T22:10:38.725Z,99.99
2018-12-26T22:11:38.687Z,99.99
2018-12-26T22:12:38.754Z,99.99
2018-12-26T22:13:38.643Z,99.99
2018-12-26T22:14:38.682Z,99.99
2018-12-26T22:15:38.636Z,99.99
2018-12-26T22:16:38.577Z,99.99
2018-12-26T22:17:38.617Z,99.99
2018-12-26T22:18:38.586Z,99.99
2018-12-26T22:19:38.766Z,99.99
2018-12-26T22:20:38.582Z,99.99
2018-12-26T22:21:38.548Z,99.99
2018-12-26T22:22:38.557Z,99.99
2018-12-26T22:23:38.516Z,99.99
2018-12-26T22:24:38.564Z,99.99
2018-12-26T22:25:38.540Z,99.99
2018-12-26T22:26:43.156Z,99.99
2018-12-26T22:27:38.456Z,99.99
2018-12-26T22:28:38.438Z,99.99
2018-12-26T22:29:38.447Z,99.99
2018-12-26T22:30:38.412Z,99.99
2018-12-26T22:31:38.421Z,99.99
2018-12-26T22:32:38.449Z,99.99
2018-12-26T22:33:38.436Z,99.99
2018-12-26T22:34:38.401Z,99.99
2018-12-26T22:35:38.358Z,99.99
2018-12-26T22:36:38.370Z,99.99
2018-12-26T22:37:38.342Z,99.99
2018-12-26T22:38:38.354Z,99.99
2018-12-26T22:39:38.319Z,99.99
2018-12-26T22:40:38.301Z,99.99
2018-12-26T22:41:38.355Z,99.99
2018-12-26T22:42:38.294Z,99.99
2018-12-26T22:43:38.272Z,99.99
2018-12-26T22:44:38.261Z,99.99
2018-12-26T22:45:43.943Z,99.99
2018-12-26T22:46:39.255Z,99.99
2018-12-26T22:47:38.229Z,99.99
2018-12-26T22:48:38.212Z,99.99
2018-12-26T22:49:38.201Z,99.99
2018-12-26T22:50:38.190Z,99.99
2018-12-26T22:51:42.074Z,99.99
2018-12-26T22:52:38.170Z,99.99
2018-12-26T22:53:38.150Z,99.99
2018-12-26T22:54:49.585Z,99.99
2018-12-26T22:55:38.253Z,99.99
2018-12-26T22:56:47.667Z,99.99
2018-12-26T22:57:38.241Z,99.99
2018-12-26T22:58:38.205Z,99.99
2018-12-26T22:59:38.167Z,99.99
2018-12-26T23:00:38.202Z,99.99
2018-12-26T23:01:38.144Z,99.99
2018-12-26T23:02:38.938Z,99.99
2018-12-26T23:03:47.811Z,99.99
2018-12-26T23:04:38.137Z,99.99
2018-12-26T23:05:38.098Z,99.99
2018-12-26T23:06:53.031Z,99.99
2018-12-26T23:07:38.169Z,99.99
2018-12-26T23:08:38.059Z,99.99
2018-12-26T23:09:38.130Z,99.99
2018-12-26T23:10:38.029Z,99.99
2018-12-26T23:11:37.994Z,99.99
2018-12-26T23:12:37.989Z,99.99
2018-12-26T23:13:37.934Z,99.99
2018-12-26T23:14:37.968Z,99.99
2018-12-26T23:15:37.940Z,99.99
2018-12-26T23:16:37.930Z,99.99
2018-12-26T23:17:37.909Z,99.99
2018-12-26T23:18:37.883Z,99.99
2018-12-26T23:19:37.891Z,99.99
2018-12-26T23:20:37.865Z,99.99
2018-12-26T23:21:37.866Z,99.99
2018-12-26T23:22:37.855Z,99.99
2018-12-26T23:23:37.874Z,99.99
2018-12-26T23:24:37.809Z,99.99
2018-12-26T23:25:37.815Z,99.99
2018-12-26T23:26:37.790Z,99.99
2018-12-26T23:27:37.800Z,99.99
2018-12-26T23:28:37.794Z,99.99
2018-12-26T23:29:37.760Z,99.99
2018-12-26T23:30:37.747Z,99.99
2018-12-26T23:31:37.726Z,99.99
2018-12-26T23:32:37.713Z,99.99
2018-12-26T23:33:37.749Z,99.99
2018-12-26T23:34:47.314Z,99.99